Time;durP1;ratioP1;P1;durP2;ratioP2;P2;SDS_P1;SDS_P2;PMS_P1;PMS_P2;Temp;Humidity;BMP_temperature;BMP_pressure;BME280_temperature;BME280_humidity;BME280_pressure;Samples;Min_cycle;Max_cycle;Signal;HPM_P1;HPM_P2
2022/10/03 00:00:56;;;;;;;3.00;1.30;;;;;;;10.55;81.13;97632.23;104280;1284;74973;-22
2022/10/03 00:03:35;;;;;;;3.60;1.10;;;;;;;10.39;81.89;97632.02;103927;1286;77133;-23
2022/10/03 00:06:38;;;;;;;1.90;1.20;;;;;;;10.39;82.90;97642.80;102948;1284;1264660;-23
2022/10/03 00:09:27;;;;;;;2.20;1.20;;;;;;;10.63;81.35;97633.90;104264;1281;63196;-23
2022/10/03 00:12:27;;;;;;;4.00;1.60;;;;;;;10.59;81.31;97634.45;104498;1281;62919;-24
2022/10/03 00:15:12;;;;;;;4.10;1.80;;;;;;;10.36;81.91;97627.61;104120;1281;73920;-22
2022/10/03 00:18:01;;;;;;;6.90;1.60;;;;;;;10.25;82.67;97629.58;104167;1281;76993;-25
2022/10/03 00:20:40;;;;;;;6.70;1.90;;;;;;;10.50;81.73;97620.31;103768;1286;74556;-22
2022/10/03 00:23:34;;;;;;;4.20;1.60;;;;;;;10.47;81.38;97623.73;104206;1281;61717;-22
2022/10/03 00:26:27;;;;;;;2.60;1.70;;;;;;;10.42;81.50;97613.00;104233;1283;61868;-22
2022/10/03 00:29:13;;;;;;;4.90;1.80;;;;;;;10.21;82.26;97616.14;104449;1284;75814;-22
2022/10/03 00:32:14;;;;;;;2.90;1.70;;;;;;;10.37;81.84;97607.89;104376;1284;77155;-22
2022/10/03 00:34:58;;;;;;;3.50;2.00;;;;;;;10.52;80.72;97606.05;104091;1283;73847;-22
2022/10/03 00:37:34;;;;;;;3.40;1.60;;;;;;;10.22;81.64;97609.58;104255;1283;62148;-22
2022/10/03 00:40:10;;;;;;;5.00;1.40;;;;;;;10.16;81.99;97614.89;104463;1281;61746;-22
2022/10/03 00:42:56;;;;;;;1.70;1.30;;;;;;;10.27;81.61;97600.42;104090;1281;75761;-22
2022/10/03 00:45:42;;;;;;;4.30;1.60;;;;;;;10.49;80.93;97604.28;104264;1284;76731;-22
2022/10/03 00:48:17;;;;;;;4.20;1.70;;;;;;;10.28;81.15;97596.61;103845;1284;75319;-22
2022/10/03 00:51:09;;;;;;;4.00;1.50;;;;;;;10.12;82.04;97606.42;103840;1284;62773;-23
2022/10/03 00:54:03;;;;;;;3.40;1.50;;;;;;;10.09;82.91;97608.14;104368;1284;61121;-22
2022/10/03 00:56:53;;;;;;;3.50;1.80;;;;;;;10.41;81.07;97597.31;104245;1284;74685;-22
2022/10/03 00:59:48;;;;;;;3.40;1.80;;;;;;;10.38;81.12;97601.58;104463;1284;76798;-23
2022/10/03 01:02:24;;;;;;;2.40;1.50;;;;;;;10.11;82.37;97594.95;104348;1283;74277;-22
2022/10/03 01:05:17;;;;;;;4.70;1.50;;;;;;;10.01;82.83;97594.33;104094;1284;63665;-22
2022/10/03 01:08:07;;;;;;;2.80;1.50;;;;;;;10.30;81.43;97594.55;104002;1284;62773;-23
2022/10/03 01:10:56;;;;;;;3.90;1.40;;;;;;;10.34;81.23;97590.85;104632;1277;75893;-23
2022/10/03 01:13:42;;;;;;;3.90;1.90;;;;;;;10.15;81.57;97584.98;104431;1277;77066;-23
2022/10/03 01:16:26;;;;;;;4.20;1.40;;;;;;;9.96;82.55;97590.18;104546;1277;75471;-24
2022/10/03 01:19:08;;;;;;;2.80;1.40;;;;;;;10.24;81.84;97583.50;104662;1277;63050;-25
2022/10/03 01:21:46;;;;;;;7.00;1.80;;;;;;;10.30;80.92;97582.48;104559;1277;63325;-22
2022/10/03 01:24:35;;;;;;;4.10;2.20;;;;;;;10.24;81.07;97581.84;104697;1277;75408;-23
2022/10/03 01:27:17;;;;;;;4.30;1.80;;;;;;;9.94;82.01;97581.05;104639;1277;77311;-23
2022/10/03 01:30:23;;;;;;;3.30;2.10;;;;;;;10.11;82.05;97581.39;104438;1277;75310;-23
2022/10/03 01:33:05;;;;;;;4.30;2.60;;;;;;;10.35;80.69;97580.54;104626;1277;61391;-23
2022/10/03 01:35:44;;;;;;;2.20;1.60;;;;;;;10.16;81.13;97576.77;104582;1277;62922;-23
2022/10/03 01:38:42;;;;;;;4.90;1.80;;;;;;;10.01;81.98;97582.46;104674;1277;74541;-23
2022/10/03 01:41:34;;;;;;;5.50;2.10;;;;;;;9.91;82.62;97586.23;104723;1277;76772;-24
2022/10/03 01:44:07;;;;;;;5.70;1.70;;;;;;;10.31;80.51;97576.05;104601;1277;74310;-23
2022/10/03 01:46:37;;;;;;;3.60;1.50;;;;;;;10.15;80.78;97575.09;104585;1277;63151;-26
2022/10/03 01:49:45;;;;;;;9.60;2.50;;;;;;;10.08;81.66;97574.81;104285;1278;61863;-26
2022/10/03 01:52:21;;;;;;;4.00;1.60;;;;;;;9.86;82.75;97579.94;104288;1277;75869;-23
2022/10/03 01:55:07;;;;;;;4.30;1.60;;;;;;;10.18;81.14;97578.48;104641;1277;77102;-23
2022/10/03 01:57:52;;;;;;;4.20;2.10;;;;;;;10.15;80.76;97579.13;104584;1277;75703;-23
2022/10/03 02:00:22;;;;;;;3.10;1.40;;;;;;;10.04;81.64;97573.51;104787;1278;62740;-24
2022/10/03 02:03:07;;;;;;;1.40;1.20;;;;;;;9.75;82.11;97573.75;104626;1277;62007;-25
2022/10/03 02:05:53;;;;;;;4.80;1.90;;;;;;;9.93;81.85;97570.98;104401;1277;75744;-25
2022/10/03 02:08:35;;;;;;;4.80;1.90;;;;;;;10.02;81.40;97572.27;104466;1277;74778;-24
2022/10/03 02:11:07;;;;;;;4.90;1.50;;;;;;;9.87;81.85;97566.84;104324;1277;75310;-25
2022/10/03 02:13:35;;;;;;;7.70;2.20;;;;;;;9.64;83.27;97580.33;104552;1277;61838;-25
2022/10/03 02:16:16;;;;;;;4.50;1.80;;;;;;;9.71;83.38;97580.59;104397;1277;63103;-25
2022/10/03 02:18:54;;;;;;;6.50;2.10;;;;;;;9.99;81.67;97579.41;104395;1277;74704;-25
2022/10/03 02:21:24;;;;;;;3.90;2.10;;;;;;;9.93;81.42;97578.58;104331;1277;75823;-25
2022/10/03 02:24:10;;;;;;;5.60;2.00;;;;;;;9.77;82.54;97587.21;104412;1275;74489;-25
2022/10/03 02:26:52;;;;;;;4.10;2.00;;;;;;;9.71;82.91;97586.73;104307;1276;63691;-25
2022/10/03 02:29:43;;;;;;;6.70;1.80;;;;;;;10.03;81.88;97592.64;104575;1274;62951;-25
2022/10/03 02:32:26;;;;;;;3.20;2.30;;;;;;;10.24;80.35;97591.35;104639;1274;74617;-25
2022/10/03 02:35:02;;;;;;;2.40;1.50;;;;;;;10.05;81.06;97578.89;104664;1274;77369;-25
2022/10/03 02:37:35;;;;;;;5.30;1.90;;;;;;;9.83;82.01;97593.06;104700;1274;75633;-24
2022/10/03 02:40:21;;;;;;;6.70;2.20;;;;;;;9.86;82.15;97585.86;104643;1274;62864;-25
2022/10/03 02:43:07;;;;;;;5.00;2.30;;;;;;;10.12;80.63;97583.18;104872;1274;62119;-25
2022/10/03 02:45:47;;;;;;;5.10;2.20;;;;;;;10.17;80.69;97586.19;104662;1274;73713;-25
2022/10/03 02:48:52;;;;;;;2.70;1.60;;;;;;;10.02;81.18;97584.49;104579;1274;77056;-25
2022/10/03 02:51:36;;;;;;;3.30;1.80;;;;;;;9.80;82.74;97585.11;104666;1277;75550;-25
2022/10/03 02:54:37;;;;;;;2.80;1.90;;;;;;;10.05;81.67;97580.14;104624;1277;61854;-25
2022/10/03 02:57:22;;;;;;;5.20;2.20;;;;;;;10.13;80.86;97577.07;104578;1277;62693;-25
2022/10/03 03:00:02;;;;;;;3.00;1.90;;;;;;;9.91;81.44;97573.37;104617;1277;75712;-25
2022/10/03 03:02:45;;;;;;;9.00;1.80;;;;;;;9.73;82.28;97572.77;104411;1277;77201;-25
2022/10/03 03:05:37;;;;;;;8.50;1.40;;;;;;;9.78;82.25;97570.67;104804;1277;74307;-25
2022/10/03 03:08:19;;;;;;;5.40;2.10;;;;;;;10.09;80.36;97567.38;104681;1274;61150;-25
2022/10/03 03:11:08;;;;;;;4.50;2.10;;;;;;;10.17;80.05;97566.04;104455;1277;61907;-25
2022/10/03 03:13:55;;;;;;;2.20;1.30;;;;;;;9.92;80.73;97554.26;104721;1277;75835;-25
2022/10/03 03:16:40;;;;;;;3.30;1.50;;;;;;;9.63;81.12;97549.15;104299;1276;77136;-25
2022/10/03 03:19:20;;;;;;;3.80;1.30;;;;;;;9.82;80.95;97556.95;104621;1274;75427;-25
2022/10/03 03:22:17;;;;;;;3.60;1.60;;;;;;;9.95;80.17;97549.40;104582;1274;62917;-25
2022/10/03 03:25:05;;;;;;;2.90;1.80;;;;;;;9.90;80.28;97561.50;104560;1277;61932;-25
2022/10/03 03:27:37;;;;;;;5.20;1.90;;;;;;;9.72;81.17;97559.40;104575;1277;74677;-25
2022/10/03 03:30:13;;;;;;;2.50;1.50;;;;;;;9.59;81.65;97556.30;104393;1277;77095;-25
2022/10/03 03:33:20;;;;;;;2.50;1.40;;;;;;;9.84;80.81;97548.84;104382;1277;74202;-24
2022/10/03 03:36:16;;;;;;;3.30;1.50;;;;;;;9.95;79.83;97552.98;104176;1280;63136;-24
2022/10/03 03:39:09;;;;;;;5.30;2.20;;;;;;;9.70;81.14;97561.97;104110;1281;63003;-25
2022/10/03 03:41:49;;;;;;;7.20;1.00;;;;;;;9.48;82.06;97558.27;104231;1281;75761;-25
2022/10/03 03:44:41;;;;;;;2.30;1.60;;;;;;;9.81;80.53;97555.88;104149;1280;77032;-25
2022/10/03 03:47:20;;;;;;;8.90;2.00;;;;;;;9.80;80.09;97557.48;104591;1277;74362;-25
2022/10/03 03:50:11;;;;;;;5.30;2.00;;;;;;;9.60;80.71;97548.75;104346;1277;62951;-25
2022/10/03 03:53:03;;;;;;;2.40;1.20;;;;;;;9.44;81.74;97539.61;104373;1277;63089;-25
2022/10/03 03:55:53;;;;;;;3.20;1.60;;;;;;;9.71;81.00;97544.73;104572;1277;74915;-24
2022/10/03 03:58:31;;;;;;;3.40;1.80;;;;;;;9.93;79.77;97543.70;104359;1277;77151;-25
2022/10/03 04:01:20;;;;;;;5.40;2.20;;;;;;;9.82;80.45;97548.34;104531;1277;74411;-25
2022/10/03 04:04:06;;;;;;;4.10;1.90;;;;;;;9.62;80.93;97544.95;104313;1277;63549;-25
2022/10/03 04:06:45;;;;;;;4.60;1.40;;;;;;;9.56;81.06;97535.89;104489;1277;62099;-25
2022/10/03 04:09:53;;;;;;;7.60;1.80;;;;;;;9.82;80.06;97535.44;104380;1274;74843;-24
2022/10/03 04:12:55;;;;;;;4.40;1.90;;;;;;;9.80;80.04;97543.16;104580;1273;75722;-24
2022/10/03 04:15:50;;;;;;;2.50;1.40;;;;;;;9.61;80.99;97541.11;104581;1274;75388;-25
2022/10/03 04:21:19;;;;;;;3.50;1.60;;;;;;;9.95;80.06;97537.98;104728;1274;61300;-24
2022/10/03 04:23:56;;;;;;;5.50;2.20;;;;;;;10.02;79.10;97541.30;104622;1274;76046;-24
2022/10/03 04:26:58;;;;;;;3.70;1.80;;;;;;;9.74;80.05;97536.77;104719;1274;77338;-24
2022/10/03 04:29:45;;;;;;;3.20;1.60;;;;;;;9.51;80.96;97536.88;104883;1274;73245;-24
2022/10/03 04:32:15;;;;;;;2.70;1.60;;;;;;;9.66;80.81;97549.73;104659;1273;63022;-24
2022/10/03 04:35:04;;;;;;;5.60;2.40;;;;;;;9.95;79.45;97546.86;104646;1274;61595;-24
2022/10/03 04:37:57;;;;;;;10.40;2.50;;;;;;;9.86;79.26;97537.80;104632;1274;76697;-24
2022/10/03 04:40:32;;;;;;;5.10;2.20;;;;;;;9.68;79.49;97536.17;104726;1274;77118;-25
2022/10/03 04:43:09;;;;;;;3.90;1.80;;;;;;;9.52;80.47;97544.23;104605;1274;75458;-25
2022/10/03 04:45:58;;;;;;;4.00;2.10;;;;;;;9.80;79.56;97544.34;104611;1274;63092;-25
2022/10/03 04:48:49;;;;;;;3.60;1.90;;;;;;;9.87;78.75;97525.93;104588;1274;61762;-25
2022/10/03 04:51:36;;;;;;;2.70;1.70;;;;;;;9.61;79.36;97533.98;104858;1271;75665;-24
2022/10/03 04:54:25;;;;;;;4.30;1.90;;;;;;;9.55;79.82;97540.41;104665;1274;77100;-25
2022/10/03 04:56:59;;;;;;;2.30;1.90;;;;;;;9.58;80.25;97535.45;104749;1271;75344;-24
2022/10/03 04:59:41;;;;;;;4.20;1.90;;;;;;;9.83;79.16;97540.71;104729;1272;61948;-25
2022/10/03 05:02:33;;;;;;;2.40;1.60;;;;;;;9.75;78.73;97544.67;104875;1271;61768;-23
2022/10/03 05:05:19;;;;;;;5.60;2.20;;;;;;;9.68;79.03;97526.33;104711;1271;75591;-25
2022/10/03 05:07:49;;;;;;;4.50;2.00;;;;;;;9.41;79.90;97538.73;104812;1271;76920;-25
2022/10/03 05:10:16;;;;;;;2.60;1.90;;;;;;;9.69;79.28;97535.91;104730;1274;75431;-25
2022/10/03 05:12:51;;;;;;;2.70;1.60;;;;;;;9.89;78.34;97543.98;104751;1271;61974;-26
2022/10/03 05:15:41;;;;;;;3.70;2.10;;;;;;;9.80;78.50;97534.09;104682;1274;63252;-25
2022/10/03 05:18:17;;;;;;;3.70;1.90;;;;;;;9.64;79.50;97537.65;104648;1273;76362;-25
2022/10/03 05:20:53;;;;;;;8.60;2.30;;;;;;;9.54;79.72;97538.45;104720;1271;75913;-24
2022/10/03 05:23:30;;;;;;;6.30;1.70;;;;;;;9.81;78.85;97543.20;104722;1271;74272;-24
2022/10/03 05:26:12;;;;;;;7.10;1.80;;;;;;;10.17;77.65;97542.00;104801;1271;62983;-25
2022/10/03 05:29:49;;;;;;;8.50;2.30;;;;;;;9.96;77.72;97541.98;104762;1271;63038;-23
2022/10/03 05:32:25;;;;;;;4.00;1.90;;;;;;;9.77;78.82;97542.38;104326;1277;76580;-23
2022/10/03 05:35:25;;;;;;;4.00;2.30;;;;;;;9.57;79.58;97536.39;104711;1274;77031;-24
2022/10/03 05:38:23;;;;;;;2.50;1.90;;;;;;;9.86;78.36;97524.83;105074;1271;74393;-24
2022/10/03 05:41:07;;;;;;;5.30;1.70;;;;;;;10.02;77.94;97536.95;105121;1274;63225;-24
2022/10/03 05:43:57;;;;;;;2.50;1.70;;;;;;;9.93;78.49;97542.52;104747;1271;62989;-23
2022/10/03 05:50:07;;;;;;;4.20;1.70;;;;;;;10.01;78.74;97539.13;104577;1271;76725;-23
2022/10/03 05:52:49;;;;;;;3.50;1.80;;;;;;;10.20;77.29;97544.38;104634;1275;74365;-23
2022/10/03 05:55:36;;;;;;;1.50;1.40;;;;;;;10.03;78.08;97543.08;104742;1271;62352;-23
2022/10/03 05:58:21;;;;;;;3.60;1.70;;;;;;;9.99;78.67;97545.02;104791;1271;61968;-23
2022/10/03 06:01:06;;;;;;;5.00;1.70;;;;;;;9.88;78.71;97540.17;104777;1274;76375;-23
2022/10/03 06:04:01;;;;;;;2.90;1.50;;;;;;;10.22;77.67;97536.71;104780;1272;77046;-23
2022/10/03 06:06:56;;;;;;;6.50;1.70;;;;;;;10.41;76.95;97537.64;104768;1271;75123;-23
2022/10/03 06:10:03;;;;;;;2.50;1.40;;;;;;;10.31;78.20;97534.13;104726;1274;61497;-23
2022/10/03 06:12:36;;;;;;;5.00;1.60;;;;;;;10.07;79.13;97531.84;104637;1274;63060;-24
2022/10/03 06:15:11;;;;;;;5.40;1.80;;;;;;;10.15;79.43;97542.02;104831;1271;75358;-24
2022/10/03 06:17:59;;;;;;;4.90;2.10;;;;;;;10.46;78.56;97538.48;104766;1274;76895;-24
2022/10/03 06:20:31;;;;;;;5.30;1.70;;;;;;;10.48;78.53;97542.98;104609;1274;75534;-24
2022/10/03 06:23:27;;;;;;;2.40;1.40;;;;;;;10.36;78.48;97545.73;104776;1274;61757;-24
2022/10/03 06:26:18;;;;;;;1.90;1.10;;;;;;;10.14;78.65;97537.41;105048;1274;62466;-24
2022/10/03 06:28:52;;;;;;;3.10;1.50;;;;;;;10.35;78.96;97543.21;104959;1274;76799;-24
2022/10/03 06:31:41;;;;;;;1.80;1.40;;;;;;;10.69;77.01;97538.11;105115;1271;75860;-24
2022/10/03 06:34:33;;;;;;;4.00;2.00;;;;;;;10.70;77.13;97539.26;104846;1271;75467;-24
2022/10/03 06:37:03;;;;;;;3.70;1.70;;;;;;;10.38;78.24;97539.61;104693;1274;61922;-25
2022/10/03 06:39:45;;;;;;;1.60;1.10;;;;;;;10.26;80.17;97552.95;104732;1274;62919;-24
2022/10/03 06:42:30;;;;;;;2.70;1.10;;;;;;;10.48;78.55;97540.19;104686;1274;76555;-25
2022/10/03 06:45:38;;;;;;;2.70;1.40;;;;;;;10.75;77.04;97548.12;104686;1272;75758;-25
2022/10/03 06:48:39;;;;;;;3.40;1.50;;;;;;;10.74;76.73;97535.70;105086;1271;75146;-25
2022/10/03 06:51:31;;;;;;;2.60;1.30;;;;;;;10.39;77.80;97541.93;105079;1271;62068;-25
2022/10/03 06:54:36;;;;;;;2.30;1.10;;;;;;;10.27;77.88;97538.63;104829;1272;63150;-24
2022/10/03 06:57:31;;;;;;;5.00;1.30;;;;;;;10.61;77.40;97544.42;104801;1271;75502;-25
2022/10/03 07:00:05;;;;;;;2.10;1.20;;;;;;;10.67;77.14;97544.39;104757;1271;76697;-24
2022/10/03 07:02:42;;;;;;;3.40;1.30;;;;;;;10.61;77.38;97538.18;104640;1271;74394;-24
2022/10/03 07:05:48;;;;;;;4.40;1.30;;;;;;;10.51;78.45;97553.34;104684;1274;63166;-24
2022/10/03 07:08:48;;;;;;;2.10;1.20;;;;;;;10.45;77.84;97543.79;104757;1271;62727;-24
2022/10/03 07:11:43;;;;;;;1.70;1.10;;;;;;;10.75;77.27;97541.21;104812;1271;76316;-24
2022/10/03 07:14:48;;;;;;;2.70;1.30;;;;;;;10.75;76.61;97544.95;104790;1271;77016;-24
2022/10/03 07:17:25;;;;;;;4.90;1.70;;;;;;;10.64;76.94;97537.10;104769;1271;75407;-24
2022/10/03 07:20:11;;;;;;;2.80;1.00;;;;;;;10.86;77.38;97543.71;104696;1274;63661;-24
2022/10/03 07:23:16;;;;;;;6.80;1.70;;;;;;;11.40;75.30;97547.86;104834;1271;63079;-24
2022/10/03 07:25:58;;;;;;;1.00;0.90;;;;;;;11.36;73.01;97538.64;104910;1274;76651;-24
2022/10/03 07:28:48;;;;;;;4.80;1.40;;;;;;;11.25;73.17;97541.73;104777;1274;76868;-25
2022/10/03 07:31:43;;;;;;;4.40;1.30;;;;;;;10.86;73.78;97524.73;104887;1274;74361;-24
2022/10/03 07:34:40;;;;;;;5.10;1.20;;;;;;;10.81;75.50;97540.06;104876;1271;61115;-24
2022/10/03 07:40:53;;;;;;;4.00;1.60;;;;;;;11.28;73.01;97532.21;104782;1271;76588;-24
2022/10/03 07:43:24;;;;;;;4.70;1.30;;;;;;;11.16;73.56;97524.65;104827;1271;75895;-26
2022/10/03 07:46:16;;;;;;;4.30;1.40;;;;;;;11.09;74.05;97528.70;104614;1274;74440;-24
2022/10/03 07:48:56;;;;;;;3.00;1.40;;;;;;;11.10;74.93;97527.79;104956;1271;63083;-24
2022/10/03 07:51:45;;;;;;;4.10;1.00;;;;;;;11.10;75.30;97534.19;104705;1271;63038;-24
2022/10/03 07:54:47;;;;;;;2.50;1.10;;;;;;;11.70;74.49;97544.36;104762;1271;76504;-24
2022/10/03 07:57:24;;;;;;;3.90;1.10;;;;;;;11.57;74.10;97523.72;105099;1274;74334;-24
2022/10/03 08:00:21;;;;;;;2.10;1.00;;;;;;;11.09;75.52;97528.83;104852;1274;75543;-23
2022/10/03 08:03:02;;;;;;;3.20;1.20;;;;;;;10.91;77.25;97533.45;105126;1271;61712;-23
2022/10/03 08:05:39;;;;;;;3.30;1.30;;;;;;;10.81;78.28;97530.08;105018;1271;62172;-23
2022/10/03 08:08:09;;;;;;;2.70;0.90;;;;;;;10.93;78.35;97538.39;104913;1271;76635;-23
2022/10/03 08:11:08;;;;;;;1.70;0.70;;;;;;;10.90;79.12;97531.76;104750;1274;77266;-24
2022/10/03 08:13:51;;;;;;;3.10;1.00;;;;;;;10.74;77.74;97515.91;104653;1272;75250;-23
2022/10/03 08:16:52;;;;;;;2.20;1.10;;;;;;;10.70;79.66;97523.30;104795;1272;62867;-24
2022/10/03 08:19:43;;;;;;;1.00;0.90;;;;;;;10.88;78.88;97516.13;105111;1271;62047;-23
2022/10/03 08:22:54;;;;;;;11.50;1.20;;;;;;;11.36;75.98;97511.77;105060;1271;74306;-23
2022/10/03 08:25:32;;;;;;;3.30;1.20;;;;;;;11.49;75.48;97524.30;104460;1280;76761;-24
2022/10/03 08:28:22;;;;;;;3.60;1.30;;;;;;;11.48;74.98;97515.70;104240;1280;75150;-24
2022/10/03 08:31:24;;;;;;;2.30;0.90;;;;;;;11.47;73.94;97518.20;104450;1272;62806;-24
2022/10/03 08:34:16;;;;;;;2.70;1.00;;;;;;;11.52;72.79;97510.86;105269;1271;63104;-24
2022/10/03 08:37:02;;;;;;;3.10;1.00;;;;;;;11.65;72.75;97522.67;104739;1274;75359;-24
2022/10/03 08:39:45;;;;;;;3.40;1.10;;;;;;;11.54;72.43;97518.47;104936;1272;76848;-25
2022/10/03 08:42:30;;;;;;;2.40;1.10;;;;;;;11.19;72.47;97519.78;104777;1271;75359;-25
2022/10/03 08:45:50;;;;;;;3.20;0.90;;;;;;;11.17;73.65;97531.35;104690;1272;63574;-24
2022/10/03 08:48:33;;;;;;;2.00;1.00;;;;;;;11.56;71.36;97524.34;104898;1274;61806;-25
2022/10/03 08:51:12;;;;;;;1.40;0.90;;;;;;;11.52;71.34;97522.33;105080;1274;74326;-25
2022/10/03 08:54:04;;;;;;;2.00;0.80;;;;;;;11.27;70.82;97525.96;104754;1272;77066;-25
2022/10/03 08:56:50;;;;;;;4.60;1.10;;;;;;;11.14;72.22;97530.19;104736;1274;75464;-25
2022/10/03 08:59:39;;;;;;;3.30;0.80;;;;;;;11.09;73.10;97533.52;104879;1272;62969;-24
2022/10/03 09:02:13;;;;;;;3.90;1.00;;;;;;;11.11;71.65;97520.13;104824;1272;62707;-23
2022/10/03 09:04:43;;;;;;;1.70;1.10;;;;;;;11.44;70.63;97528.58;104881;1272;75022;-24
2022/10/03 09:07:34;;;;;;;2.50;0.90;;;;;;;11.87;69.61;97522.67;104973;1274;76661;-24
2022/10/03 09:10:21;;;;;;;2.50;1.00;;;;;;;12.25;68.97;97521.50;105103;1274;75304;-25
2022/10/03 09:13:13;;;;;;;3.50;1.20;;;;;;;12.18;68.60;97527.48;105003;1271;61572;-25
2022/10/03 09:16:05;;;;;;;2.20;0.80;;;;;;;12.03;68.15;97510.27;104927;1271;61790;-25
2022/10/03 09:19:14;;;;;;;3.30;1.00;;;;;;;11.84;68.27;97505.88;105027;1274;75528;-25
2022/10/03 09:21:48;;;;;;;2.10;1.20;;;;;;;11.54;68.15;97492.94;104705;1274;77118;-25
2022/10/03 09:24:24;;;;;;;;;;;;;;;11.26;68.63;97516.80;104889;1271;73960;-25
2022/10/03 09:27:06;;;;;;;4.60;1.20;;;;;;;11.21;70.49;97529.66;104734;1274;61872;-25
2022/10/03 09:29:49;;;;;;;2.00;0.80;;;;;;;11.34;69.13;97525.34;104759;1271;61920;-25
2022/10/03 09:32:28;;;;;;;2.60;1.20;;;;;;;11.73;67.38;97505.13;104702;1271;75537;-25
2022/10/03 09:35:20;;;;;;;2.10;0.90;;;;;;;11.87;67.06;97517.28;104809;1271;76073;-24
2022/10/03 09:37:53;;;;;;;5.10;1.80;;;;;;;11.83;65.63;97495.17;104979;1271;75674;-25
2022/10/03 09:40:32;;;;;;;1.70;0.90;;;;;;;11.63;66.13;97504.45;104810;1271;62960;-24
2022/10/03 09:43:26;;;;;;;1.80;1.00;;;;;;;11.45;66.71;97512.16;104748;1274;62063;-24
2022/10/03 09:46:08;;;;;;;5.10;0.80;;;;;;;11.30;68.16;97523.02;104985;1271;76556;-24
2022/10/03 09:48:54;;;;;;;3.50;1.00;;;;;;;11.26;68.91;97521.86;104772;1271;74765;-24
2022/10/03 09:51:32;;;;;;;1.30;0.80;;;;;;;11.25;69.14;97526.19;104771;1274;75391;-24
2022/10/03 09:54:31;;;;;;;1.70;1.10;;;;;;;11.60;68.00;97516.92;104631;1274;62707;-24
2022/10/03 09:57:21;;;;;;;2.40;1.30;;;;;;;11.78;66.30;97510.48;104956;1271;62611;-23
2022/10/03 10:00:15;;;;;;;2.20;1.00;;;;;;;11.69;66.47;97510.60;105027;1274;75534;-23
2022/10/03 10:03:12;;;;;;;1.00;0.80;;;;;;;11.46;67.46;97517.14;105002;1274;77055;-23
2022/10/03 10:05:58;;;;;;;2.20;0.80;;;;;;;11.28;67.45;97510.49;104681;1275;75368;-23
2022/10/03 10:08:44;;;;;;;1.40;0.90;;;;;;;11.40;68.44;97524.55;105097;1271;62164;-23
2022/10/03 10:11:42;;;;;;;1.90;1.10;;;;;;;11.63;68.17;97515.70;104998;1274;61918;-26
2022/10/03 10:14:43;;;;;;;2.20;1.10;;;;;;;11.67;67.78;97521.56;104737;1274;76537;-23
2022/10/03 10:17:25;;;;;;;3.20;1.00;;;;;;;11.44;67.92;97506.53;104819;1271;76711;-23
2022/10/03 10:20:04;;;;;;;1.20;0.60;;;;;;;11.50;67.50;97519.44;104716;1274;75342;-23
2022/10/03 10:22:41;;;;;;;4.30;1.10;;;;;;;11.71;66.89;97519.25;104736;1274;61560;-24
2022/10/03 10:25:26;;;;;;;4.10;0.70;;;;;;;11.67;66.68;97511.69;104639;1272;62781;-23
2022/10/03 10:28:23;;;;;;;1.00;0.50;;;;;;;11.80;66.38;97500.41;105067;1274;76584;-23
2022/10/03 10:31:13;;;;;;;3.40;1.00;;;;;;;11.76;67.18;97515.42;105036;1274;76984;-23
2022/10/03 10:34:10;;;;;;;0.80;0.60;;;;;;;11.93;66.46;97515.28;105113;1271;75534;-24
2022/10/03 10:36:57;;;;;;;3.60;1.30;;;;;;;11.96;65.68;97507.77;105067;1274;63063;-24
2022/10/03 10:39:56;;;;;;;2.90;0.70;;;;;;;11.83;65.24;97510.64;105113;1271;62030;-24
2022/10/03 10:43:00;;;;;;;2.70;0.70;;;;;;;11.66;65.70;97499.20;105089;1274;74503;-25
2022/10/03 10:45:45;;;;;;;;;;;;;;;11.55;66.25;97494.42;104829;1271;76751;-24
2022/10/03 10:48:32;;;;;;;1.10;0.90;;;;;;;11.43;66.94;97508.39;104608;1274;74059;-24
2022/10/03 10:51:34;;;;;;;3.40;1.00;;;;;;;11.32;67.11;97505.27;104807;1274;61817;-24
2022/10/03 10:54:40;;;;;;;2.30;1.10;;;;;;;11.28;69.12;97510.36;105070;1274;61614;-24
2022/10/03 10:57:29;;;;;;;1.00;0.80;;;;;;;11.66;67.32;97495.79;105120;1271;75488;-24
2022/10/03 11:00:15;;;;;;;2.80;0.80;;;;;;;11.77;65.71;97498.27;105091;1271;76971;-24
2022/10/03 11:02:45;;;;;;;6.10;1.30;;;;;;;11.81;65.56;97499.88;105044;1271;73730;-24
2022/10/03 11:05:41;;;;;;;2.60;1.00;;;;;;;11.61;65.49;97499.81;104738;1271;62932;-24
2022/10/03 11:08:12;;;;;;;1.90;0.80;;;;;;;11.53;66.61;97513.92;104559;1271;62396;-25
2022/10/03 11:10:51;;;;;;;2.40;1.10;;;;;;;11.32;66.48;97499.11;104710;1272;75525;-24
2022/10/03 11:13:43;;;;;;;2.60;1.10;;;;;;;11.26;66.80;97500.81;104883;1272;76960;-24
2022/10/03 11:16:33;;;;;;;3.60;0.80;;;;;;;11.21;67.60;97505.08;104537;1277;74679;-24
2022/10/03 11:19:35;;;;;;;1.50;0.80;;;;;;;11.15;67.23;97489.83;105068;1271;61995;-24
2022/10/03 11:22:51;;;;;;;1.30;0.70;;;;;;;11.12;67.45;97486.69;105073;1271;61916;-24
2022/10/03 11:25:58;;;;;;;2.00;0.80;;;;;;;11.61;66.57;97489.41;105096;1271;74167;-24
2022/10/03 11:28:34;;;;;;;2.70;1.10;;;;;;;11.84;65.28;97485.86;104684;1271;76643;-24
2022/10/03 11:31:20;;;;;;;1.30;0.80;;;;;;;11.82;66.20;97487.95;104822;1271;75251;-24
2022/10/03 11:34:29;;;;;;;2.20;1.10;;;;;;;11.72;66.18;97498.75;104785;1271;63284;-24
2022/10/03 11:37:29;;;;;;;2.20;0.80;;;;;;;11.43;66.48;97477.47;105037;1271;63051;-24
2022/10/03 11:40:03;;;;;;;2.70;1.40;;;;;;;11.23;68.04;97481.58;104543;1274;76548;-23
2022/10/03 11:42:53;;;;;;;1.20;0.90;;;;;;;11.15;68.43;97487.39;104775;1271;75911;-24
2022/10/03 11:45:32;;;;;;;1.30;0.80;;;;;;;11.29;69.34;97493.06;104622;1274;75471;-24
2022/10/03 11:48:36;;;;;;;1.80;0.80;;;;;;;11.79;68.69;97490.89;104747;1274;63217;-24
2022/10/03 11:54:46;;;;;;;2.40;1.00;;;;;;;12.20;63.85;97456.59;104879;1271;76531;-23
2022/10/03 11:57:29;;;;;;;1.10;0.70;;;;;;;12.05;64.10;97463.91;104618;1272;75912;-24
2022/10/03 12:00:12;;;;;;;2.10;0.60;;;;;;;12.13;64.58;97462.09;104734;1272;75396;-23
2022/10/03 12:09:46;;;;;;;1.80;0.80;;;;;;;12.14;64.70;97447.37;104841;1271;76615;-24
2022/10/03 12:12:26;;;;;;;1.10;0.90;;;;;;;12.17;65.51;97448.55;104834;1271;75371;-24
2022/10/03 12:14:56;;;;;;;1.70;1.00;;;;;;;12.17;65.10;97443.16;104698;1274;75375;-24
2022/10/03 12:17:34;;;;;;;3.50;1.20;;;;;;;12.37;65.10;97448.11;104690;1271;63065;-24
2022/10/03 12:20:13;;;;;;;1.20;0.90;;;;;;;12.41;64.05;97442.80;105120;1271;62039;-23
2022/10/03 12:22:45;;;;;;;1.30;1.10;;;;;;;12.45;64.98;97454.47;104969;1271;76274;-24
2022/10/03 12:25:19;;;;;;;1.70;0.70;;;;;;;12.50;64.38;97445.88;104893;1271;76746;-24
2022/10/03 12:28:19;;;;;;;1.40;1.00;;;;;;;12.33;64.70;97446.48;104760;1271;75449;-24
2022/10/03 12:31:01;;;;;;;1.80;0.80;;;;;;;12.25;65.08;97446.32;104761;1274;63058;-24
2022/10/03 12:33:43;;;;;;;3.10;1.00;;;;;;;12.22;66.29;97450.52;104979;1271;61857;-24
2022/10/03 12:36:14;;;;;;;1.00;0.70;;;;;;;12.19;65.66;97431.52;105052;1271;76646;-24
2022/10/03 12:39:15;;;;;;;1.60;0.90;;;;;;;12.50;64.03;97421.25;105124;1271;76056;-24
2022/10/03 12:42:01;;;;;;;0.80;0.80;;;;;;;12.59;63.74;97429.05;104951;1271;75555;-24
2022/10/03 12:45:11;;;;;;;1.60;0.90;;;;;;;12.43;64.19;97424.59;104712;1271;62001;-22
2022/10/03 12:48:07;;;;;;;0.80;0.70;;;;;;;12.43;64.71;97439.12;104744;1271;62033;-24
2022/10/03 12:50:37;;;;;;;4.30;0.50;;;;;;;12.36;64.98;97431.31;104743;1271;75691;-24
2022/10/03 12:53:18;;;;;;;1.80;0.90;;;;;;;12.41;65.59;97435.88;104691;1274;75598;-24
2022/10/03 12:56:15;;;;;;;5.20;1.00;;;;;;;12.25;66.20;97425.92;104592;1274;74182;-24
2022/10/03 12:59:03;;;;;;;1.80;1.00;;;;;;;12.04;66.78;97432.48;104469;1277;63088;-24
2022/10/03 13:01:58;;;;;;;4.40;0.80;;;;;;;11.98;67.35;97428.06;104682;1271;61048;-24
2022/10/03 13:04:46;;;;;;;0.90;0.50;;;;;;;12.00;68.35;97429.73;104849;1273;76540;-24
2022/10/03 13:07:38;;;;;;;0.90;0.80;;;;;;;12.28;68.30;97436.64;105030;1271;77112;-24
2022/10/03 13:10:26;;;;;;;1.50;0.80;;;;;;;12.42;67.91;97435.90;104761;1272;74395;-24
2022/10/03 13:13:19;;;;;;;1.10;0.60;;;;;;;12.19;69.51;97441.73;104763;1271;63142;-25
2022/10/03 13:16:26;;;;;;;1.30;0.70;;;;;;;11.75;72.25;97439.91;104887;1274;63064;-25
2022/10/03 13:19:12;;;;;;;1.10;0.60;;;;;;;11.32;75.58;97437.00;104744;1274;75317;-25